createdAt,value
2018-08-07T00:00:33.343Z,991.01
2018-08-07T00:01:33.334Z,991.00
2018-08-07T00:02:33.323Z,990.99
2018-08-07T00:03:33.321Z,991.01
2018-08-07T00:04:33.295Z,990.98
2018-08-07T00:05:33.309Z,990.98
2018-08-07T00:06:33.279Z,990.98
2018-08-07T00:07:33.264Z,990.94
2018-08-07T00:08:33.258Z,990.95
2018-08-07T00:09:33.241Z,990.91
2018-08-07T00:10:33.235Z,990.92
2018-08-07T00:11:33.213Z,990.94
2018-08-07T00:12:33.206Z,990.91
2018-08-07T00:13:33.204Z,990.87
2018-08-07T00:14:33.188Z,990.88
2018-08-07T00:15:33.170Z,990.91
2018-08-07T00:16:33.166Z,990.87
2018-08-07T00:17:33.157Z,990.86
2018-08-07T00:18:33.134Z,990.86
2018-08-07T00:19:33.128Z,990.85
2018-08-07T00:20:33.112Z,990.80
2018-08-07T00:21:33.099Z,990.81
2018-08-07T00:22:33.089Z,990.78
2018-08-07T00:23:33.081Z,990.82
2018-08-07T00:24:33.068Z,990.78
2018-08-07T00:25:33.061Z,990.80
2018-08-07T00:26:33.051Z,990.83
2018-08-07T00:27:33.033Z,990.80
2018-08-07T00:28:33.020Z,990.80
2018-08-07T00:29:33.006Z,990.77
2018-08-07T00:30:33.003Z,990.77
2018-08-07T00:31:32.990Z,990.80
2018-08-07T00:32:32.981Z,990.82
2018-08-07T00:33:32.971Z,990.77
2018-08-07T00:34:32.949Z,990.78
2018-08-07T00:35:32.943Z,990.78
2018-08-07T00:36:32.927Z,990.78
2018-08-07T00:37:32.914Z,990.77
2018-08-07T00:38:32.901Z,990.77
2018-08-07T00:39:32.891Z,990.74
2018-08-07T00:40:32.879Z,990.70
2018-08-07T00:41:32.882Z,990.74
2018-08-07T00:42:32.860Z,990.72
2018-08-07T00:43:32.864Z,990.71
2018-08-07T00:44:32.834Z,990.70
2018-08-07T00:45:32.828Z,990.69
2018-08-07T00:46:32.816Z,990.67
2018-08-07T00:47:32.804Z,990.66
2018-08-07T00:48:32.795Z,990.64
2018-08-07T00:49:32.779Z,990.64
2018-08-07T00:50:32.760Z,990.63
2018-08-07T00:51:32.757Z,990.66
2018-08-07T00:52:32.735Z,990.66
2018-08-07T00:53:32.731Z,990.60
2018-08-07T00:54:32.712Z,990.62
2018-08-07T00:55:32.703Z,990.62
2018-08-07T00:56:32.693Z,990.62
2018-08-07T00:57:32.684Z,990.59
2018-08-07T00:58:32.664Z,990.56
2018-08-07T00:59:32.667Z,990.57
2018-08-07T01:00:32.646Z,990.58
2018-08-07T01:01:32.626Z,990.57
2018-08-07T01:02:32.619Z,990.59
2018-08-07T01:03:32.607Z,990.60
2018-08-07T01:04:32.607Z,990.62
2018-08-07T01:05:32.597Z,990.60
2018-08-07T01:06:32.569Z,990.58
2018-08-07T01:07:32.569Z,990.57
2018-08-07T01:08:32.561Z,990.55
2018-08-07T01:09:32.531Z,990.57
2018-08-07T01:10:32.521Z,990.58
2018-08-07T01:11:32.511Z,990.59
2018-08-07T01:12:32.496Z,990.59
2018-08-07T01:13:32.511Z,990.62
2018-08-07T01:14:32.478Z,990.60
2018-08-07T01:15:32.457Z,990.63
2018-08-07T01:16:32.457Z,990.64
2018-08-07T01:17:32.444Z,990.62
2018-08-07T01:18:32.422Z,990.58
2018-08-07T01:19:32.406Z,990.60
2018-08-07T01:20:32.396Z,990.58
2018-08-07T01:21:32.377Z,990.56
2018-08-07T01:22:32.371Z,990.54
2018-08-07T01:23:32.356Z,990.55
2018-08-07T01:24:32.371Z,990.54
2018-08-07T01:25:32.337Z,990.53
2018-08-07T01:26:32.314Z,990.54
2018-08-07T01:27:32.308Z,990.55
2018-08-07T01:28:32.294Z,990.56
2018-08-07T01:29:32.280Z,990.59
2018-08-07T01:30:32.278Z,990.61
2018-08-07T01:31:32.260Z,990.61
2018-08-07T01:32:32.244Z,990.64
2018-08-07T01:33:32.225Z,990.62
2018-08-07T01:34:32.215Z,990.64
2018-08-07T01:35:32.205Z,990.61
2018-08-07T01:36:32.193Z,990.61
2018-08-07T01:37:32.180Z,990.58
2018-08-07T01:38:32.169Z,990.55
2018-08-07T01:39:32.150Z,990.56
2018-08-07T01:40:32.140Z,990.56
2018-08-07T01:41:32.121Z,990.51
2018-08-07T01:42:32.108Z,990.46
2018-08-07T01:43:32.096Z,990.51
2018-08-07T01:44:32.086Z,990.49
2018-08-07T01:45:32.116Z,990.54
2018-08-07T01:46:32.073Z,990.56
2018-08-07T01:47:32.048Z,990.52
2018-08-07T01:48:32.038Z,990.54
2018-08-07T01:49:32.029Z,990.52
2018-08-07T01:50:32.017Z,990.50
2018-08-07T01:51:31.996Z,990.49
2018-08-07T01:52:31.977Z,990.51
2018-08-07T01:53:31.969Z,990.45
2018-08-07T01:54:31.963Z,990.43
2018-08-07T01:55:31.946Z,990.47
2018-08-07T01:56:31.933Z,990.46
2018-08-07T01:57:31.920Z,990.45
2018-08-07T01:58:31.901Z,990.46
2018-08-07T01:59:31.904Z,990.49
2018-08-07T02:00:31.876Z,990.44
2018-08-07T02:01:31.863Z,990.45
2018-08-07T02:02:31.854Z,990.43
2018-08-07T02:03:31.841Z,990.45
2018-08-07T02:04:31.825Z,990.43
2018-08-07T02:05:31.815Z,990.44
2018-08-07T02:06:31.817Z,990.44
2018-08-07T02:07:31.783Z,990.46
2018-08-07T02:08:31.774Z,990.44
2018-08-07T02:09:31.756Z,990.45
2018-08-07T02:10:31.741Z,990.47
2018-08-07T02:11:31.738Z,990.46
2018-08-07T02:12:31.722Z,990.46
2018-08-07T02:13:31.708Z,990.50
2018-08-07T02:14:31.702Z,990.46
2018-08-07T02:15:31.687Z,990.48
2018-08-07T02:16:31.689Z,990.44
2018-08-07T02:17:31.648Z,990.41
2018-08-07T02:18:31.635Z,990.43
2018-08-07T02:19:31.625Z,990.45
2018-08-07T02:20:31.610Z,990.46
2018-08-07T02:21:31.600Z,990.46
2018-08-07T02:22:31.587Z,990.48
2018-08-07T02:23:31.570Z,990.45
2018-08-07T02:24:31.557Z,990.45
2018-08-07T02:25:31.544Z,990.42
2018-08-07T02:26:31.537Z,990.42
2018-08-07T02:27:31.523Z,990.40
2018-08-07T02:28:31.509Z,990.40
2018-08-07T02:29:31.494Z,990.35
2018-08-07T02:30:31.477Z,990.36
2018-08-07T02:31:31.468Z,990.37
2018-08-07T02:32:31.456Z,990.38
2018-08-07T02:33:31.445Z,990.35
2018-08-07T02:34:31.433Z,990.37
2018-08-07T02:35:31.407Z,990.36
2018-08-07T02:36:31.405Z,990.36
2018-08-07T02:37:31.387Z,990.33
2018-08-07T02:38:31.369Z,990.35
2018-08-07T02:39:31.363Z,990.33
2018-08-07T02:40:31.351Z,990.31
2018-08-07T02:41:31.336Z,990.31
2018-08-07T02:42:31.324Z,990.32
2018-08-07T02:43:31.305Z,990.34
2018-08-07T02:44:31.295Z,990.32
2018-08-07T02:45:31.272Z,990.31
2018-08-07T02:46:31.265Z,990.30
2018-08-07T02:47:31.249Z,990.28
2018-08-07T02:48:31.241Z,990.23
2018-08-07T02:49:31.224Z,990.25
2018-08-07T02:50:31.230Z,990.23
2018-08-07T02:51:31.195Z,990.27
2018-08-07T02:52:31.179Z,990.25
2018-08-07T02:53:31.166Z,990.27
2018-08-07T02:54:31.157Z,990.29
2018-08-07T02:55:31.144Z,990.29
2018-08-07T02:56:31.137Z,990.27
2018-08-07T02:57:31.131Z,990.26
2018-08-07T02:58:31.102Z,990.27
2018-08-07T02:59:31.087Z,990.26
2018-08-07T03:00:31.074Z,990.31
2018-08-07T03:01:31.064Z,990.28
2018-08-07T03:02:31.048Z,990.35
2018-08-07T03:03:31.042Z,990.33
2018-08-07T03:04:31.040Z,990.37
2018-08-07T03:05:31.037Z,990.35
2018-08-07T03:06:31.016Z,990.39
2018-08-07T03:07:30.981Z,990.37
2018-08-07T03:08:30.967Z,990.41
2018-08-07T03:09:30.954Z,990.39
2018-08-07T03:10:30.951Z,990.34
2018-08-07T03:11:30.926Z,990.39
2018-08-07T03:12:30.920Z,990.40
2018-08-07T03:13:30.893Z,990.38
2018-08-07T03:14:30.887Z,990.38
2018-08-07T03:15:30.865Z,990.39
2018-08-07T03:16:30.872Z,990.41
2018-08-07T03:17:30.839Z,990.41
2018-08-07T03:18:30.833Z,990.39
2018-08-07T03:19:30.824Z,990.41
2018-08-07T03:20:30.810Z,990.40
2018-08-07T03:21:30.796Z,990.42
2018-08-07T03:22:30.776Z,990.43
2018-08-07T03:23:30.762Z,990.43
2018-08-07T03:24:30.749Z,990.41
2018-08-07T03:25:30.735Z,990.41
2018-08-07T03:26:30.719Z,990.44
2018-08-07T03:27:30.713Z,990.42
2018-08-07T03:28:30.694Z,990.41
2018-08-07T03:29:30.680Z,990.42
2018-08-07T03:30:30.675Z,990.46
2018-08-07T03:31:30.652Z,990.44
2018-08-07T03:32:30.646Z,990.47
2018-08-07T03:33:30.627Z,990.49
2018-08-07T03:34:30.614Z,990.48
2018-08-07T03:35:30.604Z,990.49
2018-08-07T03:36:30.591Z,990.47
2018-08-07T03:37:30.569Z,990.52
2018-08-07T03:38:30.563Z,990.57
2018-08-07T03:39:30.546Z,990.52
2018-08-07T03:40:30.537Z,990.52
2018-08-07T03:41:30.544Z,990.56
2018-08-07T03:42:30.505Z,990.59
2018-08-07T03:43:30.493Z,990.60
2018-08-07T03:44:30.482Z,990.58
2018-08-07T03:45:30.467Z,990.58
2018-08-07T03:46:30.451Z,990.59
2018-08-07T03:47:30.434Z,990.56
2018-08-07T03:48:30.425Z,990.59
2018-08-07T03:49:30.438Z,990.57
2018-08-07T03:50:30.403Z,990.58
2018-08-07T03:51:30.386Z,990.59
2018-08-07T03:52:30.371Z,990.62
2018-08-07T03:53:30.358Z,990.59
2018-08-07T03:54:30.346Z,990.59
2018-08-07T03:55:30.330Z,990.60
2018-08-07T03:56:30.313Z,990.60
2018-08-07T03:57:30.304Z,990.61
2018-08-07T03:58:30.285Z,990.64
2018-08-07T03:59:30.272Z,990.65
2018-08-07T04:00:30.268Z,990.66
2018-08-07T04:01:30.249Z,990.66
2018-08-07T04:02:30.252Z,990.63
2018-08-07T04:03:30.220Z,990.66
2018-08-07T04:04:30.201Z,990.67
2018-08-07T04:05:30.202Z,990.67
2018-08-07T04:06:30.182Z,990.69
2018-08-07T04:07:30.165Z,990.67
2018-08-07T04:08:30.149Z,990.71
2018-08-07T04:09:30.135Z,990.67
2018-08-07T04:10:30.132Z,990.72
2018-08-07T04:11:30.162Z,990.73
2018-08-07T04:12:30.100Z,990.71
2018-08-07T04:13:30.088Z,990.70
2018-08-07T04:14:30.068Z,990.71
2018-08-07T04:15:30.058Z,990.72
2018-08-07T04:16:30.040Z,990.72
2018-08-07T04:17:30.030Z,990.72
2018-08-07T04:18:30.019Z,990.72
2018-08-07T04:19:30.006Z,990.69
2018-08-07T04:20:29.998Z,990.74
2018-08-07T04:21:29.975Z,990.74
2018-08-07T04:22:29.991Z,990.73
2018-08-07T04:23:29.950Z,990.72
2018-08-07T04:24:29.936Z,990.69
2018-08-07T04:25:29.931Z,990.76
2018-08-07T04:26:29.908Z,990.74
2018-08-07T04:27:29.899Z,990.76
2018-08-07T04:28:29.880Z,990.75
2018-08-07T04:29:29.864Z,990.74
2018-08-07T04:30:29.870Z,990.75
2018-08-07T04:31:29.844Z,990.73
2018-08-07T04:32:29.839Z,990.72
2018-08-07T04:33:29.809Z,990.73
2018-08-07T04:34:29.868Z,990.75
2018-08-07T04:35:29.787Z,990.75
2018-08-07T04:36:29.769Z,990.74
2018-08-07T04:37:29.760Z,990.77
2018-08-07T04:38:29.751Z,990.75
2018-08-07T04:39:29.728Z,990.75
2018-08-07T04:40:29.728Z,990.73
2018-08-07T04:41:29.708Z,990.74
2018-08-07T04:42:29.692Z,990.73
2018-08-07T04:43:29.686Z,990.73
2018-08-07T04:44:29.664Z,990.71
2018-08-07T04:45:29.655Z,990.75
2018-08-07T04:46:29.638Z,990.76
2018-08-07T04:47:29.626Z,990.76
2018-08-07T04:48:29.613Z,990.77
2018-08-07T04:49:29.610Z,990.71
2018-08-07T04:50:29.591Z,990.77
2018-08-07T04:51:29.572Z,990.75
2018-08-07T04:52:29.559Z,990.76
2018-08-07T04:53:29.553Z,990.77
2018-08-07T04:54:29.528Z,990.75
2018-08-07T04:55:29.518Z,990.79
2018-08-07T04:56:29.503Z,990.81
2018-08-07T04:57:29.486Z,990.77
2018-08-07T04:58:29.482Z,990.77
2018-08-07T04:59:29.476Z,990.79
2018-08-07T05:00:29.460Z,990.83
2018-08-07T05:01:29.446Z,990.88
2018-08-07T05:02:29.422Z,990.86
2018-08-07T05:03:29.416Z,990.86
2018-08-07T05:04:29.402Z,990.86
2018-08-07T05:05:29.387Z,990.87
2018-08-07T05:06:29.374Z,990.85
2018-08-07T05:07:29.367Z,990.85
2018-08-07T05:08:29.354Z,990.89
2018-08-07T05:09:29.334Z,990.86
2018-08-07T05:10:29.369Z,990.86
2018-08-07T05:11:29.306Z,990.85
2018-08-07T05:12:29.287Z,990.90
2018-08-07T05:13:29.281Z,990.90
2018-08-07T05:14:29.261Z,990.94
2018-08-07T05:15:29.261Z,990.94
2018-08-07T05:16:29.242Z,990.90
2018-08-07T05:17:29.227Z,990.89
2018-08-07T05:18:29.216Z,990.90
2018-08-07T05:19:29.201Z,990.88
2018-08-07T05:20:29.185Z,990.94
2018-08-07T05:21:29.170Z,990.94
2018-08-07T05:22:29.161Z,990.97
2018-08-07T05:23:29.151Z,990.95
2018-08-07T05:24:29.136Z,990.95
2018-08-07T05:25:29.139Z,991.02
2018-08-07T05:26:29.115Z,991.00
2018-08-07T05:27:29.113Z,991.03
2018-08-07T05:28:29.081Z,991.04
2018-08-07T05:29:29.071Z,991.09
2018-08-07T05:30:29.071Z,991.07
2018-08-07T05:31:29.046Z,991.10
2018-08-07T05:32:29.078Z,991.14
2018-08-07T05:33:29.023Z,991.12
2018-08-07T05:34:29.008Z,991.15
2018-08-07T05:35:29.001Z,991.08
2018-08-07T05:36:28.988Z,991.09
2018-08-07T05:37:28.969Z,991.07
2018-08-07T05:38:28.966Z,991.07
2018-08-07T05:39:28.946Z,991.07
2018-08-07T05:40:28.965Z,991.07
2018-08-07T05:41:28.924Z,991.09
2018-08-07T05:42:28.992Z,991.08
2018-08-07T05:43:28.898Z,991.06
2018-08-07T05:44:28.889Z,991.06
2018-08-07T05:45:28.883Z,991.07
2018-08-07T05:46:28.889Z,991.05
2018-08-07T05:47:28.847Z,991.05
2018-08-07T05:48:28.858Z,991.06
2018-08-07T05:49:28.844Z,991.03
2018-08-07T05:50:28.940Z,991.05
2018-08-07T05:51:28.824Z,991.06
2018-08-07T05:52:28.800Z,991.00
2018-08-07T05:53:28.777Z,991.02
2018-08-07T05:54:28.767Z,991.03
2018-08-07T05:55:28.755Z,991.02
2018-08-07T05:56:28.759Z,990.99
2018-08-07T05:57:28.735Z,990.99
2018-08-07T05:58:28.732Z,991.00
2018-08-07T05:59:28.703Z,990.99
2018-08-07T06:00:28.700Z,990.96
2018-08-07T06:01:28.687Z,991.00
2018-08-07T06:02:28.678Z,990.94
2018-08-07T06:03:28.665Z,991.01
2018-08-07T06:04:28.646Z,990.99
2018-08-07T06:05:28.659Z,991.01
2018-08-07T06:06:28.633Z,991.05
2018-08-07T06:07:28.611Z,991.05
2018-08-07T06:08:28.604Z,991.02
2018-08-07T06:09:28.594Z,991.06
2018-08-07T06:10:28.591Z,991.05
2018-08-07T06:11:28.572Z,991.09
2018-08-07T06:12:28.565Z,991.11
2018-08-07T06:13:28.554Z,991.16
2018-08-07T06:14:28.539Z,991.15
2018-08-07T06:15:28.545Z,991.21
2018-08-07T06:16:28.510Z,991.19
2018-08-07T06:17:28.501Z,991.19
2018-08-07T06:18:28.497Z,991.19
2018-08-07T06:19:28.489Z,991.19
2018-08-07T06:20:28.476Z,991.19
2018-08-07T06:21:28.463Z,991.22
2018-08-07T06:22:28.454Z,991.19
2018-08-07T06:23:28.446Z,991.20
2018-08-07T06:24:28.434Z,991.22
2018-08-07T06:25:28.433Z,991.20
2018-08-07T06:26:28.408Z,991.17
2018-08-07T06:27:28.419Z,991.18
2018-08-07T06:28:28.417Z,991.19
2018-08-07T06:29:28.376Z,991.16
2018-08-07T06:30:28.376Z,991.18
2018-08-07T06:31:28.416Z,991.21
2018-08-07T06:32:28.343Z,991.24
2018-08-07T06:33:28.342Z,991.22
2018-08-07T06:34:28.321Z,991.20
2018-08-07T06:35:28.314Z,991.24
2018-08-07T06:36:28.317Z,991.27
2018-08-07T06:37:28.301Z,991.28
2018-08-07T06:38:28.282Z,991.25
2018-08-07T06:39:28.279Z,991.25
2018-08-07T06:40:28.262Z,991.21
2018-08-07T06:41:28.260Z,991.20
2018-08-07T06:42:28.256Z,991.19
2018-08-07T06:43:28.269Z,991.17
2018-08-07T06:44:28.234Z,991.15
2018-08-07T06:45:28.218Z,991.16
2018-08-07T06:46:28.214Z,991.17
2018-08-07T06:47:28.199Z,991.19
2018-08-07T06:48:28.216Z,991.19
2018-08-07T06:49:28.189Z,991.18
2018-08-07T06:50:28.173Z,991.19
2018-08-07T06:51:28.171Z,991.23
2018-08-07T06:52:28.183Z,991.27
2018-08-07T06:53:28.158Z,991.29
2018-08-07T06:54:28.141Z,991.29
2018-08-07T06:55:28.132Z,991.28
2018-08-07T06:56:28.148Z,991.28
2018-08-07T06:57:28.116Z,991.27
2018-08-07T06:58:28.116Z,991.29
2018-08-07T06:59:28.103Z,991.30
2018-08-07T07:00:28.094Z,991.29
2018-08-07T07:01:28.090Z,991.33
2018-08-07T07:02:28.077Z,991.31
2018-08-07T07:03:28.078Z,991.34
2018-08-07T07:04:28.065Z,991.32
2018-08-07T07:05:28.065Z,991.28
2018-08-07T07:06:28.051Z,991.28
2018-08-07T07:07:28.059Z,991.24
2018-08-07T07:08:28.042Z,991.26
2018-08-07T07:09:28.054Z,991.24
2018-08-07T07:10:28.089Z,991.24
2018-08-07T07:11:28.023Z,991.23
2018-08-07T07:12:28.013Z,991.24
2018-08-07T07:13:28.010Z,991.25
2018-08-07T07:14:28.000Z,991.26
2018-08-07T07:15:27.994Z,991.26
2018-08-07T07:16:27.990Z,991.27
2018-08-07T07:17:27.981Z,991.27
2018-08-07T07:18:27.990Z,991.27
2018-08-07T07:19:27.965Z,991.29
2018-08-07T07:20:27.969Z,991.27
2018-08-07T07:21:27.952Z,991.32
2018-08-07T07:22:27.959Z,991.36
2018-08-07T07:23:27.956Z,991.32
2018-08-07T07:24:27.939Z,991.37
2018-08-07T07:25:27.927Z,991.36
2018-08-07T07:26:27.927Z,991.36
2018-08-07T07:27:27.914Z,991.41
2018-08-07T07:28:27.917Z,991.35
2018-08-07T07:29:27.908Z,991.39
2018-08-07T07:30:27.898Z,991.39
2018-08-07T07:31:27.892Z,991.40
2018-08-07T07:32:27.889Z,991.40
2018-08-07T07:33:27.889Z,991.40
2018-08-07T07:34:27.952Z,991.41
2018-08-07T07:35:27.870Z,991.41
2018-08-07T07:36:27.863Z,991.45
2018-08-07T07:37:27.863Z,991.39
2018-08-07T07:38:27.862Z,991.39
2018-08-07T07:39:27.847Z,991.39
2018-08-07T07:40:27.841Z,991.36
2018-08-07T07:41:27.860Z,991.38
2018-08-07T07:42:27.838Z,991.36
2018-08-07T07:43:27.831Z,991.36
2018-08-07T07:44:27.821Z,991.33
2018-08-07T07:45:27.815Z,991.38
2018-08-07T07:46:27.815Z,991.31
2018-08-07T07:47:27.815Z,991.32
2018-08-07T07:48:27.803Z,991.32
2018-08-07T07:49:27.803Z,991.30
2018-08-07T07:50:27.802Z,991.30
2018-08-07T07:51:28.591Z,991.30
2018-08-07T07:52:27.789Z,991.30
2018-08-07T07:53:27.790Z,991.32
2018-08-07T07:54:27.783Z,991.30
2018-08-07T07:55:27.772Z,991.29
2018-08-07T07:56:27.780Z,991.27
2018-08-07T07:57:27.771Z,991.30
2018-08-07T07:58:27.771Z,991.29
2018-08-07T07:59:27.762Z,991.31
2018-08-07T08:00:27.768Z,991.33
2018-08-07T08:01:27.758Z,991.32
2018-08-07T08:02:27.746Z,991.29
2018-08-07T08:03:27.742Z,991.28
2018-08-07T08:04:27.750Z,991.24
2018-08-07T08:05:27.767Z,991.27
2018-08-07T08:06:27.740Z,991.25
2018-08-07T08:07:27.730Z,991.24
2018-08-07T08:08:27.730Z,991.23
2018-08-07T08:09:27.720Z,991.18
2018-08-07T08:10:27.749Z,991.20
2018-08-07T08:11:27.724Z,991.18
2018-08-07T08:12:27.717Z,991.22
2018-08-07T08:13:27.717Z,991.22
2018-08-07T08:14:27.712Z,991.19
2018-08-07T08:15:27.710Z,991.22
2018-08-07T08:16:27.738Z,991.18
2018-08-07T08:17:27.701Z,991.20
2018-08-07T08:18:27.698Z,991.18
2018-08-07T08:19:27.695Z,991.22
2018-08-07T08:20:27.691Z,991.16
2018-08-07T08:21:27.682Z,991.21
2018-08-07T08:22:27.688Z,991.17
2018-08-07T08:23:27.685Z,991.21
2018-08-07T08:24:27.685Z,991.17
2018-08-07T08:25:27.682Z,991.18
2018-08-07T08:26:27.674Z,991.17
2018-08-07T08:27:27.676Z,991.18
2018-08-07T08:28:27.669Z,991.12
2018-08-07T08:29:27.816Z,991.16
2018-08-07T08:30:27.671Z,991.16
2018-08-07T08:31:27.679Z,991.19
2018-08-07T08:32:27.657Z,991.14
2018-08-07T08:33:27.661Z,991.17
2018-08-07T08:34:27.656Z,991.17
2018-08-07T08:35:27.716Z,991.17
2018-08-07T08:36:27.651Z,991.23
2018-08-07T08:37:27.650Z,991.21
2018-08-07T08:38:27.647Z,991.17
2018-08-07T08:39:27.644Z,991.16
2018-08-07T08:40:27.647Z,991.16
2018-08-07T08:41:27.650Z,991.14
2018-08-07T08:42:27.634Z,991.17
2018-08-07T08:43:27.635Z,991.10
2018-08-07T08:44:27.637Z,991.14
2018-08-07T08:45:27.625Z,991.09
2018-08-07T08:46:27.628Z,991.10
2018-08-07T08:47:27.631Z,991.07
2018-08-07T08:48:27.624Z,991.10
2018-08-07T08:49:27.619Z,991.08
2018-08-07T08:50:27.695Z,991.06
2018-08-07T08:51:27.618Z,991.03
2018-08-07T08:52:27.613Z,991.03
2018-08-07T08:53:27.605Z,991.04
2018-08-07T08:54:27.612Z,991.03
2018-08-07T08:55:27.645Z,991.05
2018-08-07T08:56:27.605Z,991.05
2018-08-07T08:57:27.605Z,991.09
2018-08-07T08:58:27.596Z,991.05
2018-08-07T08:59:27.596Z,991.01
2018-08-07T09:00:27.593Z,991.04
2018-08-07T09:01:27.595Z,991.02
2018-08-07T09:02:27.590Z,991.03
2018-08-07T09:03:27.583Z,991.02
2018-08-07T09:04:27.589Z,991.02
2018-08-07T09:05:27.580Z,991.03
2018-08-07T09:06:27.583Z,990.99
2018-08-07T09:07:27.586Z,990.95
2018-08-07T09:08:27.580Z,990.98
2018-08-07T09:09:27.580Z,990.99
2018-08-07T09:10:27.623Z,990.96
2018-08-07T09:11:27.616Z,990.92
2018-08-07T09:12:27.576Z,990.93
2018-08-07T09:13:27.571Z,990.95
2018-08-07T09:14:27.561Z,991.00
2018-08-07T09:15:27.572Z,991.01
2018-08-07T09:16:27.565Z,990.99
2018-08-07T09:17:27.558Z,990.99
2018-08-07T09:18:27.565Z,990.98
2018-08-07T09:19:27.579Z,990.98
2018-08-07T09:20:27.583Z,990.93
2018-08-07T09:21:27.552Z,990.94
2018-08-07T09:22:27.552Z,990.92
2018-08-07T09:23:27.552Z,990.89
2018-08-07T09:24:27.545Z,990.93
2018-08-07T09:25:27.651Z,990.95
2018-08-07T09:26:27.542Z,990.86
2018-08-07T09:27:27.549Z,990.84
2018-08-07T09:28:27.539Z,990.85
2018-08-07T09:29:27.542Z,990.81
2018-08-07T09:30:27.532Z,990.80
2018-08-07T09:31:27.539Z,990.80
2018-08-07T09:32:27.539Z,990.78
2018-08-07T09:33:27.533Z,990.75
2018-08-07T09:34:27.543Z,990.76
2018-08-07T09:35:27.546Z,990.74
2018-08-07T09:36:27.526Z,990.72
2018-08-07T09:37:27.524Z,990.73
2018-08-07T09:38:27.523Z,990.73
2018-08-07T09:39:27.540Z,990.72
2018-08-07T09:40:27.520Z,990.69
2018-08-07T09:41:27.526Z,990.67
2018-08-07T09:42:27.523Z,990.66
2018-08-07T09:43:27.516Z,990.69
2018-08-07T09:44:27.521Z,990.71
2018-08-07T09:45:27.516Z,990.71
2018-08-07T09:46:27.528Z,990.74
2018-08-07T09:47:27.510Z,990.70
2018-08-07T09:48:27.513Z,990.69
2018-08-07T09:49:27.507Z,990.67
2018-08-07T09:50:27.507Z,990.69
2018-08-07T09:51:27.510Z,990.71
2018-08-07T09:52:27.566Z,990.68
2018-08-07T09:53:27.501Z,990.66
2018-08-07T09:54:27.507Z,990.66
2018-08-07T09:55:27.503Z,990.62
2018-08-07T09:56:27.497Z,990.63
2018-08-07T09:57:27.500Z,990.60
2018-08-07T09:58:27.538Z,990.60
2018-08-07T09:59:27.491Z,990.63
2018-08-07T10:00:27.497Z,990.66
2018-08-07T10:01:27.497Z,990.65
2018-08-07T10:02:27.494Z,990.62
2018-08-07T10:03:27.491Z,990.60
2018-08-07T10:04:27.491Z,990.66
2018-08-07T10:05:27.592Z,990.62
2018-08-07T10:06:27.487Z,990.61
2018-08-07T10:07:27.481Z,990.61
2018-08-07T10:08:27.491Z,990.63
2018-08-07T10:09:27.481Z,990.61
2018-08-07T10:10:27.481Z,990.61
2018-08-07T10:11:27.481Z,990.56
2018-08-07T10:12:27.521Z,990.55
2018-08-07T10:13:27.475Z,990.54
2018-08-07T10:14:27.475Z,990.54
2018-08-07T10:15:27.482Z,990.49
2018-08-07T10:16:27.481Z,990.48
2018-08-07T10:17:27.476Z,990.50
2018-08-07T10:18:27.479Z,990.47
2018-08-07T10:19:27.478Z,990.49
2018-08-07T10:20:27.481Z,990.46
2018-08-07T10:21:27.474Z,990.47
2018-08-07T10:22:27.472Z,990.46
2018-08-07T10:23:27.475Z,990.43
2018-08-07T10:24:27.485Z,990.49
2018-08-07T10:25:27.472Z,990.38
2018-08-07T10:26:27.482Z,990.39
2018-08-07T10:27:27.475Z,990.39
2018-08-07T10:28:27.474Z,990.39
2018-08-07T10:29:27.482Z,990.37
2018-08-07T10:30:27.540Z,990.35
2018-08-07T10:31:27.489Z,990.36
2018-08-07T10:32:27.503Z,990.36
2018-08-07T10:33:27.487Z,990.32
2018-08-07T10:34:27.481Z,990.25
2018-08-07T10:35:27.488Z,990.29
2018-08-07T10:36:27.484Z,990.29
2018-08-07T10:37:27.491Z,990.29
2018-08-07T10:38:27.500Z,990.31
2018-08-07T10:39:27.492Z,990.34
2018-08-07T10:40:27.496Z,990.26
2018-08-07T10:41:27.525Z,990.26
2018-08-07T10:42:27.498Z,990.25
2018-08-07T10:43:27.591Z,990.28
2018-08-07T10:44:27.504Z,990.27
2018-08-07T10:45:27.510Z,990.27
2018-08-07T10:46:27.575Z,990.23
2018-08-07T10:47:27.510Z,990.24
2018-08-07T10:48:27.510Z,990.21
2018-08-07T10:49:27.520Z,990.21
2018-08-07T10:50:27.516Z,990.16
2018-08-07T10:51:27.529Z,990.17
2018-08-07T10:52:27.520Z,990.20
2018-08-07T10:53:27.519Z,990.17
2018-08-07T10:54:27.533Z,990.17
2018-08-07T10:55:27.533Z,990.21
2018-08-07T10:56:27.583Z,990.19
2018-08-07T10:57:27.539Z,990.21
2018-08-07T10:58:27.593Z,990.19
2018-08-07T10:59:27.542Z,990.12
2018-08-07T11:00:27.558Z,990.16
2018-08-07T11:01:27.552Z,990.16
2018-08-07T11:02:27.552Z,990.17
2018-08-07T11:03:27.552Z,990.17
2018-08-07T11:04:27.562Z,990.21
2018-08-07T11:05:27.568Z,990.14
2018-08-07T11:06:27.558Z,990.13
2018-08-07T11:07:27.564Z,990.10
2018-08-07T11:08:27.575Z,990.19
2018-08-07T11:09:27.615Z,990.14
2018-08-07T11:10:27.620Z,990.17
2018-08-07T11:11:27.571Z,990.18
2018-08-07T11:12:27.571Z,990.12
2018-08-07T11:13:27.571Z,990.14
2018-08-07T11:14:27.579Z,990.15
2018-08-07T11:15:27.573Z,990.09
2018-08-07T11:16:27.583Z,990.08
2018-08-07T11:17:27.573Z,990.09
2018-08-07T11:18:27.574Z,990.06
2018-08-07T11:19:27.576Z,990.10
2018-08-07T11:20:27.576Z,990.10
2018-08-07T11:21:27.576Z,990.07
2018-08-07T11:22:27.581Z,990.05
2018-08-07T11:23:27.583Z,990.06
2018-08-07T11:24:27.621Z,990.06
2018-08-07T11:25:27.583Z,990.08
2018-08-07T11:26:27.583Z,990.09
2018-08-07T11:27:27.585Z,990.07
2018-08-07T11:28:27.580Z,990.04
2018-08-07T11:29:27.583Z,989.99
2018-08-07T11:30:27.584Z,989.98
2018-08-07T11:31:27.590Z,989.99
2018-08-07T11:32:27.589Z,989.98
2018-08-07T11:33:27.590Z,989.97
2018-08-07T11:34:27.587Z,989.93
2018-08-07T11:35:27.590Z,989.94
2018-08-07T11:36:27.590Z,989.93
2018-08-07T11:37:27.593Z,989.91
2018-08-07T11:38:27.599Z,989.91
2018-08-07T11:39:27.609Z,989.86
2018-08-07T11:40:27.603Z,989.90
2018-08-07T11:41:27.679Z,989.81
2018-08-07T11:42:27.609Z,989.83
2018-08-07T11:43:27.612Z,989.85
2018-08-07T11:44:27.622Z,989.84
2018-08-07T11:45:27.625Z,989.93
2018-08-07T11:46:27.625Z,989.83
2018-08-07T11:47:27.633Z,989.85
2018-08-07T11:48:27.635Z,989.85
2018-08-07T11:49:27.636Z,989.83
2018-08-07T11:50:27.638Z,989.88
2018-08-07T11:51:27.649Z,989.88
2018-08-07T11:52:27.648Z,989.85
2018-08-07T11:53:27.660Z,989.85
2018-08-07T11:54:27.654Z,989.82
2018-08-07T11:55:27.667Z,989.85
2018-08-07T11:56:27.666Z,989.88
2018-08-07T11:57:27.670Z,989.77
2018-08-07T11:58:27.678Z,989.76
2018-08-07T11:59:27.683Z,989.84
2018-08-07T12:00:27.686Z,989.83
2018-08-07T12:01:27.696Z,989.87
2018-08-07T12:02:27.716Z,989.89
2018-08-07T12:03:27.705Z,989.90
2018-08-07T12:04:27.708Z,989.87
2018-08-07T12:05:27.713Z,989.82
2018-08-07T12:06:27.718Z,989.88
2018-08-07T12:07:27.719Z,989.82
2018-08-07T12:08:27.721Z,989.78
2018-08-07T12:09:27.725Z,989.83
2018-08-07T12:10:27.734Z,989.81
2018-08-07T12:11:27.738Z,989.85
2018-08-07T12:12:27.738Z,989.79
2018-08-07T12:13:27.742Z,989.84
2018-08-07T12:14:27.756Z,989.94
2018-08-07T12:15:27.757Z,989.89
2018-08-07T12:16:27.757Z,989.84
2018-08-07T12:17:27.766Z,989.76
2018-08-07T12:18:27.763Z,989.81
2018-08-07T12:19:27.781Z,989.75
2018-08-07T12:20:27.769Z,989.83
2018-08-07T12:21:27.774Z,989.84
2018-08-07T12:22:27.778Z,989.89
2018-08-07T12:23:27.788Z,989.84
2018-08-07T12:24:27.785Z,989.92
2018-08-07T12:25:27.787Z,989.89
2018-08-07T12:26:27.784Z,989.83
2018-08-07T12:27:27.794Z,989.74
2018-08-07T12:28:27.799Z,989.75